createdAt,value
2017-07-18T00:00:40.400Z,96.90
2017-07-18T00:03:06.888Z,96.90
2017-07-18T00:05:33.410Z,96.90
2017-07-18T00:07:59.970Z,96.90
2017-07-18T00:10:26.404Z,96.80
2017-07-18T00:12:53.595Z,97.00
2017-07-18T00:15:20.047Z,97.00
2017-07-18T00:17:46.609Z,97.10
2017-07-18T00:20:13.069Z,97.00
2017-07-18T00:22:39.534Z,97.10
2017-07-18T00:25:06.080Z,97.20
2017-07-18T00:27:32.653Z,97.20
2017-07-18T00:29:59.148Z,97.30
2017-07-18T00:32:25.617Z,97.30
2017-07-18T00:34:52.077Z,97.20
2017-07-18T00:37:18.671Z,97.20
2017-07-18T00:39:45.171Z,97.30
2017-07-18T00:42:11.788Z,97.30
2017-07-18T00:44:38.344Z,97.40
2017-07-18T00:47:04.780Z,97.40
2017-07-18T00:49:32.002Z,97.50
2017-07-18T00:51:58.533Z,97.40
2017-07-18T00:54:25.092Z,97.40
2017-07-18T00:56:51.568Z,97.40
2017-07-18T00:59:17.995Z,97.40
2017-07-18T01:01:45.275Z,97.40
2017-07-18T01:04:12.244Z,97.40
2017-07-18T01:06:38.808Z,97.50
2017-07-18T01:09:05.492Z,97.60
2017-07-18T01:11:31.985Z,97.60
2017-07-18T01:13:58.449Z,97.60
2017-07-18T01:16:24.900Z,97.50
2017-07-18T01:18:51.494Z,97.60
2017-07-18T01:21:17.971Z,97.60
2017-07-18T01:23:45.035Z,97.70
2017-07-18T01:26:11.582Z,97.80
2017-07-18T01:28:38.041Z,97.80
2017-07-18T01:31:04.592Z,97.80
2017-07-18T01:33:31.151Z,97.80
2017-07-18T01:35:57.716Z,97.80
2017-07-18T01:38:24.198Z,97.70
2017-07-18T01:40:50.681Z,98.10
2017-07-18T01:43:17.281Z,97.70
2017-07-18T01:45:43.772Z,97.60
2017-07-18T01:48:10.273Z,97.70
2017-07-18T01:50:37.527Z,97.70
2017-07-18T01:53:04.029Z,97.60
2017-07-18T01:55:30.585Z,97.70
2017-07-18T01:58:11.989Z,97.80
2017-07-18T02:00:38.531Z,97.80
2017-07-18T02:03:05.067Z,97.90
2017-07-18T02:05:32.364Z,97.90
2017-07-18T02:07:58.922Z,97.90
2017-07-18T02:10:25.481Z,97.90
2017-07-18T02:12:51.924Z,98.00
2017-07-18T02:15:18.496Z,98.00
2017-07-18T02:17:45.053Z,98.00
2017-07-18T02:20:11.562Z,98.00
2017-07-18T02:22:38.027Z,97.90
2017-07-18T02:25:04.528Z,98.00
2017-07-18T02:27:31.186Z,98.00
2017-07-18T02:29:57.747Z,98.00
2017-07-18T02:32:24.233Z,98.00
2017-07-18T02:34:50.741Z,98.10
2017-07-18T02:37:18.036Z,98.00
2017-07-18T02:39:44.487Z,98.00
2017-07-18T02:42:10.934Z,98.00
2017-07-18T02:44:38.240Z,97.90
2017-07-18T02:47:04.778Z,97.80
2017-07-18T02:49:31.336Z,97.80
2017-07-18T02:51:57.895Z,97.90
2017-07-18T02:54:24.460Z,98.00
2017-07-18T02:56:51.044Z,97.90
2017-07-18T02:59:17.557Z,97.90
2017-07-18T03:01:44.845Z,97.90
2017-07-18T03:04:11.300Z,97.90
2017-07-18T03:06:37.785Z,97.90
2017-07-18T03:09:04.324Z,97.80
2017-07-18T03:11:30.978Z,97.70
2017-07-18T03:13:57.500Z,97.70
2017-07-18T03:16:23.991Z,97.70
2017-07-18T03:18:50.431Z,97.70
2017-07-18T03:21:17.720Z,97.60
2017-07-18T03:23:44.435Z,97.50
2017-07-18T03:26:10.878Z,97.50
2017-07-18T03:28:37.342Z,97.30
2017-07-18T03:31:03.862Z,97.20
2017-07-18T03:33:30.410Z,97.20
2017-07-18T03:35:56.865Z,97.30
2017-07-18T03:38:23.531Z,97.80
2017-07-18T03:40:49.999Z,97.40
2017-07-18T03:43:16.550Z,97.30
2017-07-18T03:45:42.991Z,97.20
2017-07-18T03:48:09.452Z,97.20
2017-07-18T03:50:35.918Z,97.20
2017-07-18T03:53:02.395Z,97.10
2017-07-18T03:55:29.758Z,97.00
2017-07-18T03:57:56.213Z,96.90
2017-07-18T04:00:22.710Z,96.80
2017-07-18T04:02:49.317Z,96.70
2017-07-18T04:05:15.875Z,96.70
2017-07-18T04:07:42.323Z,96.70
2017-07-18T04:10:09.613Z,95.80
2017-07-18T04:12:36.521Z,95.80
2017-07-18T04:15:03.132Z,95.80
2017-07-18T04:17:29.695Z,96.10
2017-07-18T04:19:56.154Z,96.40
2017-07-18T04:22:22.631Z,96.50
2017-07-18T04:24:49.131Z,96.30
2017-07-18T04:27:15.584Z,96.40
2017-07-18T04:29:42.055Z,95.90
2017-07-18T04:32:16.215Z,95.60
2017-07-18T04:34:42.665Z,95.60
2017-07-18T04:37:09.215Z,95.80
2017-07-18T04:39:35.712Z,96.00
2017-07-18T04:42:02.818Z,96.10
2017-07-18T04:44:30.221Z,95.90
2017-07-18T04:46:56.674Z,95.90
2017-07-18T04:49:23.140Z,95.70
2017-07-18T04:51:49.691Z,95.50
2017-07-18T04:54:16.249Z,95.40
2017-07-18T04:56:42.688Z,95.50
2017-07-18T04:59:09.885Z,94.80
2017-07-18T05:01:36.346Z,94.80
2017-07-18T05:04:02.890Z,93.90
2017-07-18T05:06:29.448Z,93.40
2017-07-18T05:08:56.850Z,93.10
2017-07-18T05:11:23.295Z,92.90
2017-07-18T05:13:49.840Z,92.70
2017-07-18T05:16:16.294Z,92.60
2017-07-18T05:18:42.860Z,92.20
2017-07-18T05:21:09.311Z,91.30
2017-07-18T05:23:35.772Z,91.20
2017-07-18T05:26:02.688Z,90.90
2017-07-18T05:28:29.193Z,90.50
2017-07-18T05:30:55.641Z,89.90
2017-07-18T05:33:22.834Z,89.20
2017-07-18T05:35:49.286Z,89.10
2017-07-18T05:38:15.750Z,89.10
2017-07-18T05:40:42.198Z,89.20
2017-07-18T05:43:08.697Z,89.10
2017-07-18T05:45:35.145Z,89.10
2017-07-18T05:48:01.598Z,88.60
2017-07-18T05:50:28.080Z,87.80
2017-07-18T05:52:55.261Z,86.40
2017-07-18T05:55:23.014Z,85.10
2017-07-18T05:57:49.489Z,85.00
2017-07-18T06:00:15.937Z,83.90
2017-07-18T06:02:42.992Z,83.50
2017-07-18T06:05:09.612Z,82.60
2017-07-18T06:07:36.074Z,81.60
2017-07-18T06:10:02.517Z,80.70
2017-07-18T06:12:29.701Z,79.20
2017-07-18T06:14:56.133Z,79.00
2017-07-18T06:17:23.288Z,79.00
2017-07-18T06:19:49.802Z,78.90
2017-07-18T06:22:16.245Z,78.00
2017-07-18T06:24:42.805Z,77.40
2017-07-18T06:27:09.730Z,76.20
2017-07-18T06:29:36.321Z,76.60
2017-07-18T06:32:02.879Z,75.60
2017-07-18T06:34:29.543Z,72.30
2017-07-18T06:36:56.027Z,70.10
2017-07-18T06:39:22.479Z,68.40
2017-07-18T06:41:48.943Z,67.00
2017-07-18T06:44:15.448Z,66.00
2017-07-18T06:46:42.660Z,65.10
2017-07-18T06:49:24.135Z,65.10
2017-07-18T06:51:50.620Z,65.90
2017-07-18T06:54:17.054Z,65.90
2017-07-18T06:56:43.605Z,64.20
2017-07-18T06:59:10.139Z,64.30
2017-07-18T07:01:36.650Z,64.00
2017-07-18T07:04:03.152Z,63.90
2017-07-18T07:06:30.560Z,64.10
2017-07-18T07:08:57.007Z,64.10
2017-07-18T07:11:23.974Z,63.20
2017-07-18T07:13:56.744Z,61.50
2017-07-18T07:16:30.177Z,60.20
2017-07-18T07:19:04.473Z,60.20
2017-07-18T07:21:31.038Z,59.40
2017-07-18T07:23:58.295Z,58.70
2017-07-18T07:26:24.750Z,58.70
2017-07-18T07:28:51.362Z,58.10
2017-07-18T07:31:17.850Z,57.80
2017-07-18T07:33:44.354Z,57.60
2017-07-18T07:36:11.605Z,58.40
2017-07-18T07:38:38.107Z,58.30
2017-07-18T07:41:04.721Z,56.90
2017-07-18T07:43:31.554Z,57.70
2017-07-18T07:45:58.021Z,56.90
2017-07-18T07:48:24.503Z,56.70
2017-07-18T07:50:50.971Z,56.20
2017-07-18T07:53:18.082Z,56.30
2017-07-18T07:55:44.535Z,57.10
2017-07-18T07:58:10.976Z,57.90
2017-07-18T08:00:38.174Z,59.30
2017-07-18T08:03:04.611Z,59.30
2017-07-18T08:05:31.047Z,59.80
2017-07-18T08:07:58.243Z,61.60
2017-07-18T08:10:24.693Z,61.60
2017-07-18T08:12:51.142Z,62.30
2017-07-18T08:15:17.632Z,63.60
2017-07-18T08:17:44.061Z,63.50
2017-07-18T08:20:10.500Z,63.70
2017-07-18T08:22:37.692Z,63.50
2017-07-18T08:25:04.147Z,63.50
2017-07-18T08:27:30.585Z,63.90
2017-07-18T08:29:57.821Z,64.60
2017-07-18T08:32:24.336Z,64.60
2017-07-18T08:34:50.814Z,64.40
2017-07-18T08:37:17.226Z,64.40
2017-07-18T08:39:44.434Z,62.30
2017-07-18T08:42:10.854Z,62.20
2017-07-18T08:44:38.119Z,63.20
2017-07-18T08:47:05.316Z,63.00
2017-07-18T08:49:32.511Z,61.60
2017-07-18T08:51:58.995Z,61.60
2017-07-18T08:54:25.667Z,59.50
2017-07-18T08:56:52.152Z,57.80
2017-07-18T08:59:19.355Z,57.20
2017-07-18T09:01:45.903Z,55.80
2017-07-18T09:04:12.372Z,55.10
2017-07-18T09:06:38.833Z,55.50
2017-07-18T09:09:05.257Z,55.20
2017-07-18T09:11:32.436Z,54.50
2017-07-18T09:13:59.617Z,54.10
2017-07-18T09:16:26.273Z,54.20
2017-07-18T09:18:53.474Z,53.60
2017-07-18T09:21:19.994Z,53.70
2017-07-18T09:23:47.189Z,54.80
2017-07-18T09:26:13.650Z,54.80
2017-07-18T09:28:40.395Z,55.40
2017-07-18T09:31:06.952Z,55.30
2017-07-18T09:33:33.419Z,55.40
2017-07-18T09:35:59.879Z,55.00
2017-07-18T09:38:26.327Z,55.00
2017-07-18T09:40:52.755Z,55.10
2017-07-18T09:43:20.255Z,54.40
2017-07-18T09:45:46.705Z,54.30
2017-07-18T09:48:13.899Z,54.90
2017-07-18T09:50:40.954Z,54.80
2017-07-18T09:53:07.389Z,55.00
2017-07-18T09:55:35.241Z,54.80
2017-07-18T09:58:01.725Z,54.80
2017-07-18T10:02:55.711Z,54.70
2017-07-18T10:05:22.158Z,54.90
2017-07-18T10:07:50.340Z,55.40
2017-07-18T10:10:16.810Z,55.70
2017-07-18T10:12:43.356Z,55.90
2017-07-18T10:15:09.886Z,54.70
2017-07-18T10:17:36.695Z,54.00
2017-07-18T10:20:03.336Z,53.70
2017-07-18T10:22:29.787Z,53.80
2017-07-18T10:24:56.975Z,54.10
2017-07-18T10:27:23.425Z,54.20
2017-07-18T10:29:50.121Z,52.60
2017-07-18T10:32:16.642Z,52.80
2017-07-18T10:34:43.138Z,52.20
2017-07-18T10:37:09.593Z,52.60
2017-07-18T10:39:36.068Z,51.70
2017-07-18T10:42:02.540Z,51.90
2017-07-18T10:44:28.984Z,51.60
2017-07-18T10:46:55.793Z,52.00
2017-07-18T10:49:22.261Z,52.40
2017-07-18T10:51:48.801Z,51.80
2017-07-18T10:54:15.360Z,51.90
2017-07-18T10:56:41.806Z,52.10
2017-07-18T10:59:08.974Z,52.10
2017-07-18T11:01:36.811Z,51.90
2017-07-18T11:04:03.283Z,51.80
2017-07-18T11:06:29.723Z,51.80
2017-07-18T11:08:56.246Z,52.20
2017-07-18T11:11:23.435Z,52.20
2017-07-18T11:13:49.867Z,52.20
2017-07-18T11:16:16.376Z,52.70
2017-07-18T11:18:42.889Z,52.50
2017-07-18T11:21:09.488Z,52.50
2017-07-18T11:23:35.969Z,52.30
2017-07-18T11:26:02.549Z,52.60
2017-07-18T11:28:29.839Z,52.10
2017-07-18T11:30:56.282Z,52.10
2017-07-18T11:33:23.479Z,51.20
2017-07-18T11:35:49.989Z,51.20
2017-07-18T11:38:16.486Z,50.70
2017-07-18T11:40:43.046Z,50.60
2017-07-18T11:43:09.556Z,51.00
2017-07-18T11:45:36.363Z,50.50
2017-07-18T11:48:02.891Z,50.50
2017-07-18T11:50:29.479Z,50.00
2017-07-18T11:52:56.103Z,49.40
2017-07-18T11:55:22.567Z,49.60
2017-07-18T11:57:50.033Z,49.80
2017-07-18T12:00:16.673Z,49.70
2017-07-18T12:02:43.190Z,50.10
2017-07-18T12:05:09.753Z,50.20
2017-07-18T12:07:36.485Z,49.70
2017-07-18T12:10:02.989Z,49.20
2017-07-18T12:12:29.535Z,49.60
2017-07-18T12:14:56.229Z,50.10
2017-07-18T12:17:22.857Z,49.40
2017-07-18T12:19:49.306Z,49.30
2017-07-18T12:22:15.843Z,49.00
2017-07-18T12:24:43.649Z,49.30
2017-07-18T12:27:10.207Z,49.20
2017-07-18T12:29:36.670Z,50.20
2017-07-18T12:32:03.219Z,50.40
2017-07-18T12:34:29.688Z,50.50
2017-07-18T12:36:56.787Z,50.50
2017-07-18T12:39:23.229Z,50.30
2017-07-18T12:41:49.794Z,49.80
2017-07-18T12:44:16.260Z,49.90
2017-07-18T12:46:42.722Z,49.80
2017-07-18T12:49:09.230Z,50.00
2017-07-18T12:51:35.728Z,49.70
2017-07-18T12:54:02.248Z,49.50
2017-07-18T12:56:29.831Z,49.50
2017-07-18T12:58:56.297Z,49.70
2017-07-18T13:01:22.780Z,49.30
2017-07-18T13:03:49.707Z,49.60
2017-07-18T13:06:16.156Z,49.30
2017-07-18T13:08:43.364Z,48.90
2017-07-18T13:11:10.016Z,48.80
2017-07-18T13:13:36.504Z,48.70
2017-07-18T13:16:03.010Z,48.70
2017-07-18T13:18:29.455Z,48.60
2017-07-18T13:20:56.641Z,49.20
2017-07-18T13:23:23.073Z,49.20
2017-07-18T13:25:50.373Z,49.40
2017-07-18T13:28:16.845Z,49.40
2017-07-18T13:30:43.283Z,50.00
2017-07-18T13:33:09.772Z,49.70
2017-07-18T13:35:36.222Z,49.70
2017-07-18T13:38:02.755Z,49.70
2017-07-18T13:40:29.256Z,49.60
2017-07-18T13:42:55.730Z,49.50
2017-07-18T13:45:22.217Z,49.50
2017-07-18T13:47:48.679Z,49.50
2017-07-18T13:50:15.543Z,49.20
2017-07-18T13:52:42.026Z,49.10
2017-07-18T13:55:08.558Z,49.40
2017-07-18T13:57:34.978Z,48.30
2017-07-18T14:00:01.402Z,48.10
2017-07-18T14:02:27.892Z,48.60
2017-07-18T14:04:54.355Z,48.50
2017-07-18T14:07:20.787Z,48.20
2017-07-18T14:09:47.265Z,48.90
2017-07-18T14:12:14.496Z,49.60
2017-07-18T14:14:41.032Z,49.60
2017-07-18T14:17:07.476Z,48.90
2017-07-18T14:19:35.079Z,49.40
2017-07-18T14:22:01.521Z,49.40
2017-07-18T14:24:27.953Z,49.60
2017-07-18T14:26:55.133Z,51.00
2017-07-18T14:29:22.295Z,50.90
2017-07-18T14:31:48.715Z,50.90
2017-07-18T14:34:15.167Z,51.30
2017-07-18T14:36:42.202Z,51.20
2017-07-18T14:39:08.655Z,51.40
2017-07-18T14:41:35.138Z,51.00
2017-07-18T14:44:01.553Z,51.40
2017-07-18T14:46:28.767Z,51.70
2017-07-18T14:48:55.241Z,51.60
2017-07-18T14:51:21.867Z,51.50
2017-07-18T14:53:48.285Z,52.10
2017-07-18T14:56:14.774Z,51.80
2017-07-18T14:58:41.322Z,51.50
2017-07-18T15:01:08.564Z,51.80
2017-07-18T15:03:35.058Z,51.90
2017-07-18T15:06:01.501Z,52.30
2017-07-18T15:08:27.954Z,52.70
2017-07-18T15:10:55.348Z,52.50
2017-07-18T15:13:21.908Z,52.50
2017-07-18T15:15:48.357Z,52.80
2017-07-18T15:18:15.576Z,53.60
2017-07-18T15:20:42.058Z,53.60
2017-07-18T15:23:08.651Z,53.70
2017-07-18T15:25:35.160Z,54.30
2017-07-18T15:28:01.665Z,54.80
2017-07-18T15:30:28.115Z,55.00
2017-07-18T15:32:54.681Z,55.40
2017-07-18T15:35:21.240Z,55.40
2017-07-18T15:37:47.682Z,55.50
2017-07-18T15:40:14.140Z,55.50
2017-07-18T15:42:41.314Z,55.70
2017-07-18T15:45:07.808Z,55.70
2017-07-18T15:47:34.259Z,56.00
2017-07-18T15:50:00.691Z,56.50
2017-07-18T15:52:27.203Z,56.50
2017-07-18T15:54:53.863Z,56.50
2017-07-18T15:57:20.307Z,56.40
2017-07-18T15:59:46.736Z,56.50
2017-07-18T16:02:13.188Z,56.40
2017-07-18T16:04:40.760Z,56.10
2017-07-18T16:07:07.261Z,56.10
2017-07-18T16:09:34.195Z,55.80
2017-07-18T16:12:00.651Z,55.30
2017-07-18T16:14:27.191Z,55.50
2017-07-18T16:16:54.492Z,56.40
2017-07-18T16:19:21.036Z,56.30
2017-07-18T16:21:47.487Z,57.00
2017-07-18T16:24:13.986Z,57.70
2017-07-18T16:26:40.481Z,57.40
2017-07-18T16:29:07.632Z,58.00
2017-07-18T16:31:34.809Z,58.20
2017-07-18T16:34:01.349Z,58.20
2017-07-18T16:36:28.195Z,58.60
2017-07-18T16:38:54.674Z,58.30
2017-07-18T16:41:21.180Z,58.30
2017-07-18T16:43:47.836Z,58.80
2017-07-18T16:46:14.360Z,59.10
2017-07-18T16:48:40.802Z,59.40
2017-07-18T16:51:07.312Z,59.60
2017-07-18T16:53:34.091Z,59.20
2017-07-18T16:56:00.943Z,59.00
2017-07-18T16:58:27.431Z,58.70
2017-07-18T17:00:53.851Z,58.90
2017-07-18T17:03:20.327Z,59.10
2017-07-18T17:05:46.833Z,58.80
2017-07-18T17:08:13.428Z,58.60
2017-07-18T17:10:39.888Z,58.50
2017-07-18T17:13:06.353Z,58.40
2017-07-18T17:15:32.786Z,58.40
2017-07-18T17:18:00.046Z,59.10
2017-07-18T17:20:27.445Z,60.40
2017-07-18T17:22:54.111Z,59.60
2017-07-18T17:25:20.769Z,59.90
2017-07-18T17:27:47.430Z,60.60
2017-07-18T17:30:15.161Z,61.30
2017-07-18T17:32:41.805Z,61.30
2017-07-18T17:35:08.332Z,61.60
2017-07-18T17:37:34.808Z,62.10
2017-07-18T17:40:01.286Z,62.70
2017-07-18T17:42:28.220Z,63.20
2017-07-18T17:44:54.720Z,63.80
2017-07-18T17:47:21.224Z,63.90
2017-07-18T17:49:49.010Z,64.60
2017-07-18T17:52:15.520Z,64.90
2017-07-18T17:54:42.329Z,64.80
2017-07-18T17:57:08.798Z,65.30
2017-07-18T17:59:35.225Z,65.70
2017-07-18T18:02:03.055Z,67.30
2017-07-18T18:04:29.599Z,66.60
2017-07-18T18:06:56.070Z,66.90
2017-07-18T18:09:22.538Z,67.50
2017-07-18T18:11:49.060Z,67.50
2017-07-18T18:14:15.538Z,67.90
2017-07-18T18:16:41.998Z,68.30
2017-07-18T18:19:08.528Z,68.80
2017-07-18T18:21:35.002Z,69.20
2017-07-18T18:24:01.502Z,69.50
2017-07-18T18:26:27.989Z,69.90
2017-07-18T18:28:55.340Z,71.00
2017-07-18T18:31:21.842Z,71.00
2017-07-18T18:33:48.496Z,71.60
2017-07-18T18:36:15.260Z,71.80
2017-07-18T18:38:42.325Z,72.30
2017-07-18T18:41:09.501Z,72.90
2017-07-18T18:43:35.969Z,72.90
2017-07-18T18:46:02.513Z,73.10
2017-07-18T18:48:29.461Z,73.80
2017-07-18T18:50:57.031Z,74.70
2017-07-18T18:53:23.470Z,74.70
2017-07-18T18:55:50.080Z,75.00
2017-07-18T18:58:16.552Z,75.10
2017-07-18T19:00:43.022Z,75.40
2017-07-18T19:03:09.479Z,75.40
2017-07-18T19:08:30.004Z,75.90
2017-07-18T19:13:49.987Z,76.40
2017-07-18T19:16:16.444Z,76.70
2017-07-18T19:18:43.103Z,77.00
2017-07-18T19:21:09.972Z,77.40
2017-07-18T19:23:36.563Z,77.70
2017-07-18T19:26:03.087Z,78.00
2017-07-18T19:28:29.577Z,78.40
2017-07-18T19:30:56.305Z,78.80
2017-07-18T19:33:23.070Z,79.30
2017-07-18T19:35:50.241Z,79.70
2017-07-18T19:38:17.312Z,80.10
2017-07-18T19:40:43.831Z,80.50
2017-07-18T19:43:10.427Z,80.90
2017-07-18T19:45:37.304Z,82.10
2017-07-18T19:48:03.778Z,81.60
2017-07-18T19:50:30.366Z,81.90
2017-07-18T19:52:56.987Z,82.10
2017-07-18T19:55:24.042Z,82.30
2017-07-18T19:57:50.547Z,82.60
2017-07-18T20:00:17.012Z,82.70
2017-07-18T20:02:44.239Z,83.40
2017-07-18T20:05:10.884Z,83.10
2017-07-18T20:07:37.410Z,83.40
2017-07-18T20:10:04.002Z,83.70
2017-07-18T20:12:30.554Z,84.00
2017-07-18T20:14:57.978Z,84.20
2017-07-18T20:17:24.481Z,84.60
2017-07-18T20:19:50.957Z,84.80
2017-07-18T20:22:17.487Z,85.30
2017-07-18T20:24:59.620Z,86.10
2017-07-18T20:27:26.159Z,86.10
2017-07-18T20:29:53.367Z,86.80
2017-07-18T20:32:19.794Z,86.80
2017-07-18T20:34:47.079Z,87.60
2017-07-18T20:37:13.541Z,87.60
2017-07-18T20:39:40.244Z,87.90
2017-07-18T20:42:06.765Z,88.20
2017-07-18T20:44:33.422Z,88.60
2017-07-18T20:46:59.912Z,89.00
2017-07-18T20:49:26.365Z,89.20
2017-07-18T20:51:52.884Z,89.40
2017-07-18T20:54:20.054Z,89.70
2017-07-18T20:56:46.614Z,90.00
2017-07-18T20:59:13.119Z,90.10
2017-07-18T21:01:39.893Z,90.20
2017-07-18T21:04:06.370Z,90.30
2017-07-18T21:06:33.784Z,90.60
2017-07-18T21:09:00.251Z,90.50
2017-07-18T21:11:26.673Z,90.80
2017-07-18T21:13:53.878Z,91.10
2017-07-18T21:16:20.409Z,91.10
2017-07-18T21:18:47.325Z,91.20
2017-07-18T21:21:13.944Z,91.30
2017-07-18T21:23:40.903Z,91.40
2017-07-18T21:26:07.373Z,91.50
2017-07-18T21:28:33.919Z,91.50
2017-07-18T21:31:00.889Z,91.60
2017-07-18T21:33:27.367Z,91.70
2017-07-18T21:35:53.883Z,91.80
2017-07-18T21:38:21.085Z,91.90
2017-07-18T21:40:47.560Z,91.90
2017-07-18T21:43:14.067Z,92.00
2017-07-18T21:45:41.360Z,92.20
2017-07-18T21:48:07.881Z,92.20
2017-07-18T21:50:34.477Z,92.20
2017-07-18T21:53:00.973Z,92.60
2017-07-18T21:55:27.498Z,92.30
2017-07-18T21:57:54.590Z,92.30
2017-07-18T22:00:21.130Z,92.70
2017-07-18T22:02:47.633Z,92.30
2017-07-18T22:05:14.119Z,92.40
2017-07-18T22:07:41.353Z,93.10
2017-07-18T22:10:07.805Z,92.70
2017-07-18T22:12:34.233Z,92.90
2017-07-18T22:15:00.671Z,92.90
2017-07-18T22:17:27.949Z,93.00
2017-07-18T23:06:04.393Z,93.20
2017-07-18T23:08:30.871Z,93.20
2017-07-18T23:10:57.285Z,93.10
2017-07-18T23:13:24.559Z,93.10
2017-07-18T23:15:51.744Z,93.20
2017-07-18T23:18:18.917Z,93.30
2017-07-18T23:20:45.338Z,93.20
2017-07-18T23:23:11.760Z,93.20
2017-07-18T23:25:38.180Z,93.30
2017-07-18T23:28:04.624Z,93.30
2017-07-18T23:30:31.793Z,93.20
2017-07-18T23:32:58.923Z,93.10
2017-07-18T23:35:25.349Z,93.40
2017-07-18T23:37:51.808Z,93.30
2017-07-18T23:40:18.357Z,93.30
2017-07-18T23:42:44.812Z,93.30
2017-07-18T23:45:11.261Z,93.30
2017-07-18T23:47:38.544Z,93.30
2017-07-18T23:50:04.966Z,93.30
2017-07-18T23:52:31.403Z,93.80
2017-07-18T23:54:57.849Z,93.50
2017-07-18T23:57:24.679Z,93.50
2017-07-18T23:59:51.137Z,93.60
